Time;durP1;ratioP1;P1;durP2;ratioP2;P2;SDS_P1;SDS_P2;PMS_P1;PMS_P2;Temp;Humidity;BMP_temperature;BMP_pressure;BME280_temperature;BME280_humidity;BME280_pressure;Samples;Min_cycle;Max_cycle;Signal;HPM_P1;HPM_P2
2023/05/22 00:00:51;;;;;;;30.20;27.02;;;17.70;99.90;;;;;;5051789;28;20117;-75
2023/05/22 00:03:18;;;;;;;34.25;30.55;;;17.80;99.90;;;;;;5051390;28;20050;-75
2023/05/22 00:05:44;;;;;;;31.00;27.70;;;17.80;99.90;;;;;;5052816;28;20131;-75
2023/05/22 00:08:10;;;;;;;32.65;29.23;;;17.70;99.90;;;;;;5050901;28;20118;-75
2023/05/22 00:10:39;;;;;;;34.38;30.65;;;17.80;99.90;;;;;;5051615;28;20534;-75
2023/05/22 00:13:05;;;;;;;34.35;29.80;;;17.70;99.90;;;;;;5052821;28;20138;-75
2023/05/22 00:15:32;;;;;;;33.92;30.20;;;17.70;99.90;;;;;;5052678;28;20081;-75
2023/05/22 00:17:58;;;;;;;36.00;32.08;;;17.70;99.90;;;;;;5051541;28;20489;-75
2023/05/22 00:20:25;;;;;;;34.55;30.95;;;17.70;99.90;;;;;;5051238;28;20041;-75
2023/05/22 00:22:51;;;;;;;34.28;30.55;;;17.70;99.90;;;;;;5036832;28;20045;-75
2023/05/22 00:25:19;;;;;;;35.03;31.42;;;17.70;99.90;;;;;;5056424;28;20492;-75
2023/05/22 00:27:46;;;;;;;34.35;30.65;;;17.70;99.90;;;;;;5056068;28;20276;-75
2023/05/22 00:30:12;;;;;;;35.20;31.60;;;17.70;99.90;;;;;;5054981;28;20056;-75
2023/05/22 00:32:38;;;;;;;32.58;29.25;;;17.70;99.90;;;;;;5056347;28;20124;-75
2023/05/22 00:35:05;;;;;;;33.00;29.52;;;17.70;99.90;;;;;;5037916;28;20044;-74
2023/05/22 00:37:31;;;;;;;32.72;29.33;;;17.70;99.90;;;;;;5054637;28;20505;-75
2023/05/22 00:39:57;;;;;;;37.40;33.45;;;17.70;99.90;;;;;;5038029;28;20045;-75
2023/05/22 00:42:22;;;;;;;33.38;29.25;;;17.70;99.90;;;;;;5056192;28;20037;-75
2023/05/22 00:44:48;;;;;;;32.20;28.73;;;17.60;99.90;;;;;;5056206;28;20040;-75
2023/05/22 00:47:14;;;;;;;33.63;30.08;;;17.60;99.90;;;;;;5054509;28;20045;-75
2023/05/22 00:49:41;;;;;;;30.80;27.50;;;17.60;99.90;;;;;;5054849;28;20111;-75
2023/05/22 00:52:08;;;;;;;39.35;35.15;;;17.60;99.90;;;;;;5054810;28;20044;-75
2023/05/22 00:54:35;;;;;;;30.23;26.73;;;17.70;99.90;;;;;;5054427;28;20052;-75
2023/05/22 00:57:02;;;;;;;38.50;34.30;;;17.60;99.90;;;;;;5055625;28;20492;-75
2023/05/22 00:59:29;;;;;;;37.03;32.92;;;17.60;99.90;;;;;;5055589;28;20052;-75
2023/05/22 01:01:55;;;;;;;32.10;28.70;;;17.60;99.90;;;;;;5037605;28;20045;-74
2023/05/22 01:04:22;;;;;;;34.17;30.48;;;17.50;99.90;;;;;;5055514;28;20044;-75
2023/05/22 01:06:48;;;;;;;37.58;33.67;;;17.60;99.90;;;;;;5055411;28;20045;-74
2023/05/22 01:09:14;;;;;;;32.40;29.20;;;17.50;99.90;;;;;;5055443;28;20076;-74
2023/05/22 01:12:00;;;;;;;33.80;30.23;;;17.50;99.90;;;;;;5037585;28;20052;-74
2023/05/22 01:14:54;;;;;;;30.35;27.13;;;17.50;99.90;;;;;;5037539;28;20055;-74
2023/05/22 01:17:33;;;;;;;40.33;36.00;;;17.50;99.90;;;;;;5055246;28;20041;-75
2023/05/22 01:20:23;;;;;;;37.58;33.42;;;17.50;99.90;;;;;;5055269;28;20103;-74
2023/05/22 01:23:01;;;;;;;34.47;30.80;;;17.40;99.90;;;;;;5053981;28;20048;-74
2023/05/22 01:25:46;;;;;;;32.83;29.25;;;17.50;99.90;;;;;;5053853;28;20045;-74
2023/05/22 01:28:39;;;;;;;32.60;29.30;;;17.50;99.90;;;;;;5053875;28;20081;-74
2023/05/22 01:31:10;;;;;;;34.33;30.73;;;17.40;99.90;;;;;;5053911;28;20124;-74
2023/05/22 01:33:56;;;;;;;28.38;25.35;;;17.40;99.90;;;;;;5053732;28;20040;-74
2023/05/22 01:36:29;;;;;;;34.47;30.88;;;17.40;99.90;;;;;;5054382;28;20146;-74
2023/05/22 01:38:57;;;;;;;36.60;32.75;;;17.40;99.90;;;;;;5054905;28;20041;-74
2023/05/22 01:41:23;;;;;;;36.45;32.58;;;17.40;99.90;;;;;;5053519;28;20045;-74
2023/05/22 01:43:49;;;;;;;32.20;28.88;;;17.40;99.90;;;;;;5037099;28;20498;-74
2023/05/22 01:46:15;;;;;;;35.63;31.92;;;17.30;99.90;;;;;;5055055;28;20041;-73
2023/05/22 01:48:41;;;;;;;36.55;32.67;;;17.30;99.90;;;;;;5054597;28;20123;-73
2023/05/22 01:51:31;;;;;;;38.03;34.25;;;17.40;99.90;;;;;;5020423;28;20095;-74
2023/05/22 01:54:16;;;;;;;29.33;26.40;;;17.30;99.90;;;;;;5053735;28;20080;-74
2023/05/22 01:57:12;;;;;;;27.98;25.00;;;17.30;99.90;;;;;;5054515;28;20123;-75
2023/05/22 01:59:49;;;;;;;31.17;27.85;;;17.30;99.90;;;;;;5054797;28;20037;-74
2023/05/22 02:02:18;;;;;;;29.25;26.25;;;17.30;99.90;;;;;;5053499;28;20040;-74
2023/05/22 02:04:59;;;;;;;32.60;29.15;;;17.30;99.90;;;;;;5054493;28;20048;-74
2023/05/22 02:07:26;;;;;;;35.78;31.83;;;17.40;99.90;;;;;;5053824;28;20049;-74
2023/05/22 02:09:55;;;;;;;34.20;30.70;;;17.40;99.90;;;;;;5054581;28;20047;-74
2023/05/22 02:12:22;;;;;;;34.58;31.05;;;17.30;99.90;;;;;;5036666;28;20420;-74
2023/05/22 02:14:49;;;;;;;36.30;32.40;;;17.30;99.90;;;;;;5036311;28;20041;-74
2023/05/22 02:17:16;;;;;;;41.08;36.70;;;17.30;99.90;;;;;;5052919;28;20492;-75
2023/05/22 02:19:43;;;;;;;31.02;27.83;;;17.30;99.90;;;;;;5020551;28;20041;-74
2023/05/22 02:22:12;;;;;;;35.30;31.65;;;17.30;99.90;;;;;;5052871;28;20044;-75
2023/05/22 02:24:41;;;;;;;40.03;35.90;;;17.30;99.90;;;;;;5054069;28;20499;-75
2023/05/22 02:27:08;;;;;;;35.53;31.90;;;17.30;99.90;;;;;;5052808;28;20056;-74
2023/05/22 02:29:34;;;;;;;36.35;32.53;;;17.20;99.90;;;;;;5052738;28;20041;-75
2023/05/22 02:32:00;;;;;;;28.25;25.35;;;17.20;99.90;;;;;;5054107;28;20425;-75
2023/05/22 02:34:26;;;;;;;26.02;23.42;;;17.20;99.90;;;;;;5036175;28;20397;-74
2023/05/22 02:36:52;;;;;;;38.83;34.88;;;17.20;99.90;;;;;;5051892;28;20052;-74
2023/05/22 02:39:18;;;;;;;28.90;25.80;;;17.20;99.90;;;;;;5052517;28;20044;-74
2023/05/22 02:41:46;;;;;;;27.83;24.90;;;17.20;99.90;;;;;;5052708;28;20041;-74
2023/05/22 02:44:12;;;;;;;40.90;36.67;;;17.20;99.90;;;;;;5052613;28;20586;-74
2023/05/22 02:46:37;;;;;;;36.60;32.75;;;17.30;99.90;;;;;;5051793;28;20120;-74
2023/05/22 02:49:03;;;;;;;35.42;31.17;;;17.20;99.90;;;;;;5052540;28;20037;-74
2023/05/22 02:51:29;;;;;;;36.00;32.30;;;17.20;99.90;;;;;;5052276;28;20055;-75
2023/05/22 02:53:55;;;;;;;32.78;29.38;;;17.20;99.90;;;;;;5035659;28;20458;-74
2023/05/22 02:56:21;;;;;;;34.13;30.63;;;17.10;99.90;;;;;;5052187;28;20041;-74
2023/05/22 02:58:47;;;;;;;37.00;33.25;;;17.10;99.90;;;;;;5035554;28;20045;-74
2023/05/22 03:01:12;;;;;;;39.35;35.22;;;17.10;99.90;;;;;;5052384;28;20140;-74
2023/05/22 03:03:38;;;;;;;39.05;34.88;;;17.10;99.90;;;;;;5053312;28;20120;-75
2023/05/22 03:06:05;;;;;;;40.00;35.83;;;17.10;99.90;;;;;;5052268;28;20055;-74
2023/05/22 03:08:31;;;;;;;36.97;33.22;;;17.10;99.90;;;;;;5035186;28;20059;-74
2023/05/22 03:10:58;;;;;;;37.20;33.38;;;17.10;99.90;;;;;;5053449;28;20484;-74
2023/05/22 03:13:24;;;;;;;37.13;33.28;;;17.10;99.90;;;;;;5052138;28;20051;-75
2023/05/22 03:15:50;;;;;;;33.92;30.42;;;17.10;99.90;;;;;;5052006;28;20037;-75
2023/05/22 03:18:16;;;;;;;29.50;26.40;;;17.10;99.90;;;;;;5051806;28;20107;-74
2023/05/22 03:20:42;;;;;;;28.58;25.63;;;17.00;99.90;;;;;;5053049;28;20511;-74
2023/05/22 03:23:08;;;;;;;33.75;30.25;;;17.00;99.90;;;;;;5052004;28;20029;-74
2023/05/22 03:25:33;;;;;;;34.67;30.95;;;17.00;99.90;;;;;;5052021;28;20049;-74
2023/05/22 03:28:02;;;;;;;36.38;32.60;;;17.10;99.90;;;;;;5035274;28;20049;-74
2023/05/22 03:30:28;;;;;;;31.83;28.63;;;17.10;99.90;;;;;;5051502;28;20086;-74
2023/05/22 03:32:53;;;;;;;28.40;25.45;;;17.00;99.90;;;;;;5053118;28;20128;-74
2023/05/22 03:35:20;;;;;;;26.80;24.08;;;17.00;99.90;;;;;;5052618;28;20142;-74
2023/05/22 03:37:45;;;;;;;34.65;30.95;;;17.10;99.90;;;;;;5051276;28;20056;-74
2023/05/22 03:40:12;;;;;;;35.80;32.08;;;17.10;99.90;;;;;;5035020;28;20037;-74
2023/05/22 03:42:37;;;;;;;33.83;30.33;;;17.10;99.90;;;;;;5051601;28;20048;-74
2023/05/22 03:45:04;;;;;;;36.33;32.42;;;17.00;99.90;;;;;;5051505;28;20048;-74
2023/05/22 03:47:32;;;;;;;32.75;29.45;;;17.00;99.90;;;;;;5051624;28;20094;-73
2023/05/22 03:49:58;;;;;;;36.03;32.30;;;17.00;99.90;;;;;;5051663;28;20119;-74
2023/05/22 03:52:24;;;;;;;38.03;34.13;;;17.00;99.90;;;;;;5052954;28;20088;-74
2023/05/22 03:54:50;;;;;;;36.40;32.50;;;17.00;99.90;;;;;;5051823;28;20077;-74
2023/05/22 03:57:18;;;;;;;35.58;31.98;;;17.00;99.90;;;;;;5053591;28;20083;-74
2023/05/22 03:59:45;;;;;;;38.45;34.45;;;17.00;99.90;;;;;;5039490;28;20049;-74
2023/05/22 04:02:11;;;;;;;37.70;33.97;;;17.00;99.90;;;;;;5056659;28;20040;-74
2023/05/22 04:04:38;;;;;;;37.85;33.95;;;17.00;99.90;;;;;;5055727;28;20492;-74
2023/05/22 04:07:07;;;;;;;37.72;33.72;;;17.00;99.90;;;;;;5054883;28;20053;-74
2023/05/22 04:09:34;;;;;;;41.65;37.28;;;17.00;99.90;;;;;;5022554;28;20067;-74
2023/05/22 04:12:03;;;;;;;37.78;34.03;;;17.00;99.90;;;;;;5056782;28;20493;-75
2023/05/22 04:14:29;;;;;;;36.15;32.53;;;16.90;99.90;;;;;;5056748;28;20040;-74
2023/05/22 04:16:55;;;;;;;34.33;30.75;;;16.90;99.90;;;;;;5055158;28;20142;-74
2023/05/22 04:19:21;;;;;;;37.40;33.53;;;17.00;99.90;;;;;;5055360;28;20119;-75
2023/05/22 04:21:47;;;;;;;38.83;34.85;;;17.00;99.90;;;;;;5054978;28;20059;-74
2023/05/22 04:24:13;;;;;;;36.85;33.08;;;17.00;99.90;;;;;;5056576;28;20041;-75
2023/05/22 04:26:39;;;;;;;37.65;33.75;;;17.00;99.90;;;;;;5054925;28;20060;-74
2023/05/22 04:29:09;;;;;;;37.45;33.55;;;17.00;99.90;;;;;;5054902;28;20175;-75
2023/05/22 04:31:38;;;;;;;35.67;32.05;;;17.00;99.90;;;;;;5055106;28;20073;-75
2023/05/22 04:34:04;;;;;;;34.63;31.15;;;17.00;99.90;;;;;;5056191;28;20446;-75
2023/05/22 04:36:29;;;;;;;38.33;34.35;;;17.10;99.90;;;;;;5037514;28;20057;-75
2023/05/22 04:38:55;;;;;;;36.75;32.92;;;17.10;99.90;;;;;;5054782;28;20041;-75
2023/05/22 04:41:25;;;;;;;39.50;35.55;;;17.10;99.90;;;;;;5056198;28;20484;-75
2023/05/22 04:43:51;;;;;;;35.90;32.38;;;17.10;99.90;;;;;;5054776;28;20047;-75
2023/05/22 04:46:18;;;;;;;34.10;30.45;;;17.10;99.90;;;;;;5054525;28;20081;-74
2023/05/22 04:48:44;;;;;;;35.80;31.95;;;17.10;99.90;;;;;;5055900;28;20041;-74
2023/05/22 04:51:10;;;;;;;35.72;31.95;;;17.10;99.90;;;;;;5054600;28;20044;-74
2023/05/22 04:53:37;;;;;;;35.17;31.52;;;17.10;99.90;;;;;;5037393;28;20114;-74
2023/05/22 04:56:04;;;;;;;35.22;31.58;;;17.20;99.90;;;;;;5054504;28;20091;-75
2023/05/22 04:58:29;;;;;;;34.10;30.58;;;17.20;99.90;;;;;;5054348;28;20037;-74
2023/05/22 05:00:56;;;;;;;33.45;30.15;;;17.20;99.90;;;;;;5037840;28;20044;-74
2023/05/22 05:03:24;;;;;;;31.83;28.55;;;17.20;99.90;;;;;;5054679;28;20041;-74
2023/05/22 05:05:53;;;;;;;35.83;32.13;;;17.20;99.90;;;;;;5037603;28;20049;-74
2023/05/22 05:08:19;;;;;;;33.45;30.02;;;17.20;99.90;;;;;;5053262;28;20048;-74
2023/05/22 05:10:45;;;;;;;34.08;30.58;;;17.30;99.90;;;;;;5055744;28;20041;-74
2023/05/22 05:13:11;;;;;;;33.95;30.48;;;17.30;99.90;;;;;;5037648;28;20041;-74
2023/05/22 05:15:36;;;;;;;34.35;30.77;;;17.30;99.90;;;;;;5054021;28;20092;-74
2023/05/22 05:18:02;;;;;;;33.22;29.75;;;17.20;99.90;;;;;;5054080;28;20099;-74
2023/05/22 05:20:29;;;;;;;34.38;30.77;;;17.20;99.90;;;;;;5053962;28;20037;-74
2023/05/22 05:22:55;;;;;;;32.92;29.42;;;17.20;99.90;;;;;;5037717;28;20051;-75
2023/05/22 05:25:21;;;;;;;32.75;29.45;;;17.20;99.90;;;;;;5037283;28;20480;-75
2023/05/22 05:27:47;;;;;;;33.63;30.23;;;17.10;99.90;;;;;;5053825;28;20047;-75
2023/05/22 05:30:13;;;;;;;33.90;30.58;;;17.10;99.90;;;;;;5053829;28;20037;-75
2023/05/22 05:32:38;;;;;;;33.90;30.35;;;17.10;99.90;;;;;;5054081;28;20036;-75
2023/05/22 05:35:04;;;;;;;34.10;30.67;;;17.10;99.90;;;;;;5055004;28;20037;-74
2023/05/22 05:37:30;;;;;;;32.92;29.63;;;17.10;99.90;;;;;;5053133;28;20506;-75
2023/05/22 05:39:56;;;;;;;33.33;29.85;;;17.10;99.90;;;;;;5053547;28;20036;-75
2023/05/22 05:42:21;;;;;;;32.40;29.00;;;17.10;99.90;;;;;;5054777;28;20132;-74
2023/05/22 05:44:50;;;;;;;32.67;29.38;;;17.10;99.90;;;;;;5037577;28;20052;-75
2023/05/22 05:47:16;;;;;;;32.72;29.52;;;17.10;99.90;;;;;;5036873;28;20404;-75
2023/05/22 05:49:42;;;;;;;33.25;30.05;;;17.10;99.90;;;;;;5053578;28;20048;-75
2023/05/22 05:52:08;;;;;;;33.85;30.38;;;17.10;99.90;;;;;;5053679;28;20033;-74
2023/05/22 05:54:34;;;;;;;33.00;29.52;;;17.10;99.90;;;;;;5054509;28;20457;-74
2023/05/22 05:56:59;;;;;;;33.55;29.92;;;17.10;99.90;;;;;;5054520;28;20052;-75
2023/05/22 05:59:25;;;;;;;32.60;29.40;;;17.10;99.90;;;;;;5036927;28;20045;-74
2023/05/22 06:01:51;;;;;;;32.17;28.88;;;17.10;99.90;;;;;;5053895;28;20052;-74
2023/05/22 06:04:17;;;;;;;31.42;28.23;;;17.10;99.90;;;;;;5054912;28;20041;-75
2023/05/22 06:06:43;;;;;;;32.30;29.00;;;17.10;99.90;;;;;;5036036;28;20571;-75
2023/05/22 06:09:09;;;;;;;30.83;27.83;;;17.10;99.90;;;;;;5019981;28;20052;-75
2023/05/22 06:11:35;;;;;;;30.95;27.75;;;17.10;99.90;;;;;;5053005;28;20504;-74
2023/05/22 06:14:04;;;;;;;31.80;28.60;;;17.10;99.90;;;;;;5054242;28;20481;-75
2023/05/22 06:16:30;;;;;;;31.15;28.00;;;17.20;99.90;;;;;;5052883;28;20128;-74
2023/05/22 06:18:58;;;;;;;31.15;27.92;;;17.20;99.90;;;;;;5036277;28;20493;-75
2023/05/22 06:21:23;;;;;;;31.13;27.20;;;17.20;99.90;;;;;;5052025;28;20036;-74
2023/05/22 06:23:50;;;;;;;29.42;26.48;;;17.20;99.90;;;;;;5052969;28;20090;-74
2023/05/22 06:26:16;;;;;;;31.50;28.25;;;17.30;99.90;;;;;;5052757;28;20056;-74
2023/05/22 06:28:43;;;;;;;30.88;27.85;;;17.30;99.90;;;;;;5053910;28;20040;-75
2023/05/22 06:31:09;;;;;;;32.75;29.38;;;17.40;99.90;;;;;;5052651;28;20045;-74
2023/05/22 06:33:35;;;;;;;29.40;26.50;;;17.40;99.90;;;;;;5052894;28;20124;-74
2023/05/22 06:36:05;;;;;;;29.70;26.67;;;17.40;99.90;;;;;;5035829;28;20053;-74
2023/05/22 06:38:31;;;;;;;29.45;26.55;;;17.50;99.90;;;;;;5035638;28;20053;-75
2023/05/22 06:40:57;;;;;;;29.42;26.52;;;17.50;99.90;;;;;;5052605;28;20408;-74
2023/05/22 06:43:24;;;;;;;27.98;25.27;;;17.60;99.90;;;;;;5052761;28;20044;-74
2023/05/22 06:45:50;;;;;;;28.10;25.27;;;17.70;99.90;;;;;;5053886;28;20045;-74
2023/05/22 06:48:15;;;;;;;28.92;25.92;;;17.70;99.90;;;;;;5052398;28;20557;-74
2023/05/22 06:50:41;;;;;;;28.98;25.95;;;17.80;99.90;;;;;;5019421;28;20114;-75
2023/05/22 06:53:07;;;;;;;28.00;25.10;;;17.80;99.90;;;;;;5035720;28;20132;-74
2023/05/22 06:55:33;;;;;;;27.88;25.05;;;17.90;99.90;;;;;;5035841;28;20477;-75
2023/05/22 06:57:59;;;;;;;28.40;25.40;;;18.00;99.90;;;;;;5053480;28;20120;-75
2023/05/22 07:00:24;;;;;;;28.55;25.63;;;18.10;99.90;;;;;;5052240;28;20040;-75
2023/05/22 07:02:50;;;;;;;29.38;26.48;;;18.20;99.90;;;;;;5035548;28;20098;-75
2023/05/22 07:05:16;;;;;;;30.25;27.27;;;18.20;99.90;;;;;;5035411;28;20045;-75
2023/05/22 07:07:42;;;;;;;30.70;27.52;;;18.20;99.90;;;;;;5051815;28;20123;-74
2023/05/22 07:10:09;;;;;;;30.35;27.30;;;18.20;99.90;;;;;;5035471;28;20048;-75
2023/05/22 07:12:35;;;;;;;30.55;27.27;;;18.20;99.90;;;;;;5052205;28;20037;-75
2023/05/22 07:15:01;;;;;;;30.95;27.83;;;18.20;99.90;;;;;;5052066;28;20118;-75
2023/05/22 07:17:26;;;;;;;30.42;27.15;;;18.10;99.90;;;;;;5052980;28;20037;-75
2023/05/22 07:19:52;;;;;;;29.33;26.27;;;18.10;99.90;;;;;;5053187;28;20032;-75
2023/05/22 07:22:18;;;;;;;31.50;28.10;;;18.30;99.90;;;;;;5051742;28;20046;-75
2023/05/22 07:24:46;;;;;;;31.00;27.83;;;18.30;99.90;;;;;;5053269;28;20037;-75
2023/05/22 07:27:12;;;;;;;30.40;27.30;;;18.30;99.90;;;;;;5019273;28;20064;-75
2023/05/22 07:29:38;;;;;;;31.08;26.90;;;18.40;99.90;;;;;;5052049;28;20041;-75
2023/05/22 07:32:04;;;;;;;29.83;26.75;;;18.40;99.90;;;;;;5051483;28;20076;-75
2023/05/22 07:34:33;;;;;;;29.13;25.90;;;18.40;99.90;;;;;;5053278;28;20126;-75
2023/05/22 07:37:07;;;;;;;27.73;24.92;;;18.40;99.90;;;;;;5034920;28;20065;-75
2023/05/22 07:39:33;;;;;;;28.35;25.35;;;18.40;99.90;;;;;;5051711;28;20048;-75
2023/05/22 07:42:03;;;;;;;28.92;25.90;;;18.40;99.90;;;;;;5051542;28;20051;-75
2023/05/22 07:44:30;;;;;;;28.98;25.45;;;18.50;99.90;;;;;;5051525;28;20041;-75
2023/05/22 07:46:56;;;;;;;28.33;25.25;;;18.40;99.90;;;;;;5051650;28;20098;-75
2023/05/22 07:49:25;;;;;;;27.58;24.52;;;18.40;99.90;;;;;;5051603;28;20049;-75
2023/05/22 07:51:51;;;;;;;27.08;24.27;;;18.60;99.90;;;;;;5051507;28;20044;-75
2023/05/22 07:54:17;;;;;;;27.55;24.70;;;18.70;99.90;;;;;;5029856;28;20570;-74
2023/05/22 07:56:44;;;;;;;25.15;22.65;;;18.80;99.90;;;;;;5032910;28;20076;-75
2023/05/22 07:59:12;;;;;;;26.20;23.52;;;18.90;99.90;;;;;;5051423;28;20071;-75
2023/05/22 08:01:40;;;;;;;25.95;22.70;;;19.10;99.90;;;;;;5051452;28;20124;-75
2023/05/22 08:04:06;;;;;;;24.58;22.08;;;19.10;99.90;;;;;;5052984;28;20041;-75
2023/05/22 08:06:33;;;;;;;24.10;21.60;;;19.30;99.90;;;;;;5034328;28;20049;-75
2023/05/22 08:09:01;;;;;;;22.17;19.83;;;19.50;99.90;;;;;;5051592;28;20515;-75
2023/05/22 08:11:27;;;;;;;22.35;20.05;;;19.50;99.90;;;;;;5034940;28;20060;-75
2023/05/22 08:13:54;;;;;;;23.77;20.92;;;19.50;99.90;;;;;;5052885;28;20090;-75
2023/05/22 08:16:19;;;;;;;21.92;19.65;;;19.40;99.90;;;;;;5051329;28;20045;-75
2023/05/22 08:18:45;;;;;;;22.13;19.95;;;19.40;99.90;;;;;;5051502;28;20037;-75
2023/05/22 08:21:11;;;;;;;22.42;19.88;;;19.40;99.90;;;;;;5051254;28;20037;-75
2023/05/22 08:23:37;;;;;;;21.17;18.90;;;19.50;99.90;;;;;;5034723;28;20568;-75
2023/05/22 08:26:03;;;;;;;21.70;19.40;;;19.40;99.90;;;;;;5051510;28;20049;-75
2023/05/22 08:28:29;;;;;;;21.85;19.10;;;19.30;99.90;;;;;;5018365;28;20370;-75
2023/05/22 08:30:55;;;;;;;20.77;18.65;;;19.30;99.90;;;;;;5052489;28;20048;-75
2023/05/22 08:33:21;;;;;;;20.70;18.45;;;19.30;99.90;;;;;;5051152;28;20043;-75
2023/05/22 08:35:47;;;;;;;21.33;19.10;;;19.30;99.90;;;;;;5051173;28;20427;-75
2023/05/22 08:38:12;;;;;;;22.38;18.65;;;19.30;99.90;;;;;;5034245;28;20051;-75
2023/05/22 08:40:39;;;;;;;22.52;18.52;;;19.40;99.90;;;;;;5051334;28;20033;-75
2023/05/22 08:43:05;;;;;;;22.33;18.30;;;19.40;99.90;;;;;;5051612;28;20064;-75
2023/05/22 08:45:34;;;;;;;20.70;18.55;;;19.60;99.90;;;;;;5054774;28;20039;-75
2023/05/22 08:48:07;;;;;;;21.27;18.20;;;19.90;99.90;;;;;;5054844;28;20484;-75
2023/05/22 08:50:39;;;;;;;22.55;18.23;;;20.00;99.90;;;;;;5055063;28;20485;-75
2023/05/22 08:53:07;;;;;;;20.45;18.33;;;20.10;99.90;;;;;;5054602;28;20040;-75
2023/05/22 08:55:33;;;;;;;20.00;17.65;;;20.20;99.90;;;;;;5054722;28;20503;-75
2023/05/22 08:58:00;;;;;;;21.30;18.35;;;20.20;99.90;;;;;;5054661;28;20397;-75
2023/05/22 09:00:26;;;;;;;19.55;17.45;;;20.30;99.90;;;;;;5036123;28;20104;-75
2023/05/22 09:02:51;;;;;;;20.33;17.13;;;20.20;99.90;;;;;;5017971;28;20039;-75
2023/05/22 09:05:17;;;;;;;18.88;16.88;;;20.20;99.90;;;;;;5018203;28;20068;-75
2023/05/22 09:07:43;;;;;;;19.40;17.38;;;20.20;99.90;;;;;;5033897;28;20045;-75
2023/05/22 09:10:10;;;;;;;20.05;17.40;;;20.30;99.90;;;;;;5033050;28;20378;-75
2023/05/22 09:12:36;;;;;;;19.85;16.77;;;20.40;99.90;;;;;;5018323;28;20465;-75
2023/05/22 09:15:09;;;;;;;18.77;16.88;;;20.60;99.90;;;;;;5035720;28;20101;-75
2023/05/22 09:17:41;;;;;;;19.30;17.00;;;20.50;99.90;;;;;;5001426;28;20084;-75
2023/05/22 09:20:09;;;;;;;;;;;20.40;99.90;;;;;;5036109;28;20033;-75
2023/05/22 09:22:38;;;;;;;19.75;16.55;;;20.20;99.90;;;;;;5034439;28;20288;-76
2023/05/22 09:25:05;;;;;;;18.83;16.70;;;20.30;99.90;;;;;;5050669;28;20041;-75
2023/05/22 09:27:32;;;;;;;18.27;16.40;;;20.40;99.90;;;;;;5017924;28;20049;-75
2023/05/22 09:29:58;;;;;;;20.42;16.00;;;20.50;99.90;;;;;;5033820;28;20072;-76
2023/05/22 09:32:28;;;;;;;18.98;15.70;;;20.50;99.90;;;;;;5035265;28;20041;-76
2023/05/22 09:35:02;;;;;;;19.75;15.77;;;20.60;99.90;;;;;;5033989;28;20045;-75
2023/05/22 09:37:33;;;;;;;20.13;15.63;;;20.60;99.90;;;;;;5033160;28;20524;-76
2023/05/22 09:40:12;;;;;;;18.50;15.88;;;20.70;99.90;;;;;;5033745;28;20046;-76
2023/05/22 09:42:42;;;;;;;17.63;15.30;;;20.70;99.90;;;;;;5033978;28;20468;-75
2023/05/22 09:45:08;;;;;;;19.20;15.77;;;20.80;99.90;;;;;;5033632;28;20044;-76
2023/05/22 09:47:34;;;;;;;18.65;15.65;;;20.90;99.90;;;;;;5017191;28;20103;-76
2023/05/22 09:50:06;;;;;;;19.55;15.27;;;21.00;99.90;;;;;;5034806;28;20445;-76
2023/05/22 09:52:36;;;;;;;19.88;15.55;;;21.20;99.90;;;;;;5033087;28;20439;-75
2023/05/22 09:55:04;;;;;;;20.05;15.02;;;21.30;99.90;;;;;;5017256;28;20042;-76
2023/05/22 09:57:36;;;;;;;18.63;14.57;;;21.30;99.90;;;;;;5033381;28;20045;-76
2023/05/22 10:00:09;;;;;;;18.17;14.73;;;21.60;99.90;;;;;;5033650;28;20045;-76
2023/05/22 10:02:37;;;;;;;21.65;14.18;;;21.70;99.90;;;;;;5050045;28;20493;-76
2023/05/22 10:05:08;;;;;;;21.60;15.48;;;21.80;99.90;;;;;;5033310;28;20041;-76
2023/05/22 10:07:45;;;;;;;22.08;16.40;;;21.80;99.90;;;;;;5034168;28;20041;-76
2023/05/22 10:10:12;;;;;;;18.75;15.07;;;22.00;99.90;;;;;;5033193;28;20050;-76
2023/05/22 10:12:43;;;;;;;15.73;13.95;;;22.40;99.90;;;;;;5033067;28;20049;-76
2023/05/22 10:15:11;;;;;;;20.73;15.18;;;22.50;99.90;;;;;;5033412;28;20493;-76
2023/05/22 10:17:38;;;;;;;18.08;14.75;;;22.60;99.90;;;;;;5000310;28;20485;-76
2023/05/22 10:20:06;;;;;;;19.05;14.05;;;22.80;99.90;;;;;;5034204;28;20049;-76
2023/05/22 10:22:35;;;;;;;19.38;14.70;;;23.10;99.90;;;;;;5033294;28;20088;-76
2023/05/22 10:25:01;;;;;;;19.20;14.35;;;23.30;99.90;;;;;;5032968;28;20133;-76
2023/05/22 10:27:27;;;;;;;18.00;14.73;;;23.30;99.90;;;;;;5034053;28;20037;-76
2023/05/22 10:29:56;;;;;;;19.08;14.48;;;23.10;99.90;;;;;;5034373;28;20125;-76
2023/05/22 10:33:01;;;;;;;17.65;15.13;;;23.00;99.90;;;;;;5033931;28;20077;-76
2023/05/22 10:35:32;;;;;;;17.15;14.30;;;22.80;99.90;;;;;;5026605;28;20111;-76
2023/05/22 10:38:12;;;;;;;18.85;14.32;;;22.80;99.90;;;;;;5047584;28;20136;-76
2023/05/22 10:40:39;;;;;;;19.42;14.50;;;22.80;99.90;;;;;;5052595;28;20084;-76
2023/05/22 10:43:05;;;;;;;18.27;14.27;;;22.80;99.90;;;;;;5052413;28;20128;-76
2023/05/22 10:45:31;;;;;;;18.52;14.73;;;22.70;99.90;;;;;;5036183;28;20120;-76
2023/05/22 10:48:05;;;;;;;18.52;14.55;;;22.90;99.90;;;;;;5053969;28;20056;-76
2023/05/22 10:50:31;;;;;;;19.90;14.60;;;23.10;99.90;;;;;;5052420;28;20040;-76
2023/05/22 10:53:26;;;;;;;17.42;14.77;;;23.30;99.90;;;;;;5053818;28;20045;-76
2023/05/22 10:55:56;;;;;;;16.45;14.10;;;23.40;99.90;;;;;;5053486;28;20048;-76
2023/05/22 10:58:36;;;;;;;15.50;13.43;;;23.60;99.90;;;;;;5052490;28;20517;-77
2023/05/22 11:01:17;;;;;;;18.27;13.90;;;23.70;99.90;;;;;;5053716;28;20033;-77
2023/05/22 11:04:00;;;;;;;17.27;14.07;;;23.70;99.90;;;;;;5052378;28;20134;-76
2023/05/22 11:06:33;;;;;;;15.93;14.05;;;23.50;99.90;;;;;;5052586;28;20045;-76
2023/05/22 11:09:32;;;;;;;17.33;14.07;;;23.70;99.90;;;;;;5053327;28;20120;-76
2023/05/22 11:12:29;;;;;;;18.77;14.48;;;23.90;99.90;;;;;;5035458;28;20044;-77
2023/05/22 11:14:57;;;;;;;19.38;15.45;;;23.70;99.90;;;;;;5044531;28;20091;-76
2023/05/22 11:17:27;;;;;;;20.17;15.00;;;23.60;99.90;;;;;;5053328;28;20550;-76
2023/05/22 11:19:59;;;;;;;18.08;14.07;;;23.60;99.90;;;;;;5052219;28;20060;-76
2023/05/22 11:22:36;;;;;;;18.00;14.60;;;23.80;99.90;;;;;;5035211;28;20068;-76
2023/05/22 11:25:29;;;;;;;18.17;14.55;;;23.70;99.90;;;;;;5053432;28;20040;-76
2023/05/22 11:27:55;;;;;;;19.27;14.95;;;23.80;99.90;;;;;;5032431;28;20139;-76
2023/05/22 11:30:25;;;;;;;17.23;15.40;;;23.70;99.90;;;;;;5053323;28;20519;-76
2023/05/22 11:32:51;;;;;;;18.67;15.40;;;23.90;99.90;;;;;;5051724;28;20045;-77
2023/05/22 11:35:18;;;;;;;19.08;15.00;;;23.90;99.90;;;;;;5052842;28;20578;-76
2023/05/22 11:37:45;;;;;;;15.88;14.18;;;24.40;99.90;;;;;;5052747;28;20049;-76
2023/05/22 11:40:14;;;;;;;17.23;15.20;;;24.90;99.90;;;;;;5053119;28;20033;-76
2023/05/22 11:42:40;;;;;;;19.33;15.85;;;25.20;99.90;;;;;;5052828;28;20037;-76
2023/05/22 11:45:06;;;;;;;19.45;15.55;;;25.20;99.90;;;;;;5051788;28;20045;-76
2023/05/22 11:47:32;;;;;;;21.83;18.63;;;25.40;99.90;;;;;;5035380;28;20473;-75
2023/05/22 11:49:59;;;;;;;18.70;15.73;;;25.20;99.90;;;;;;5052666;28;20044;-75
2023/05/22 11:52:28;;;;;;;19.27;16.17;;;25.60;99.90;;;;;;5034977;28;20134;-76
2023/05/22 11:54:54;;;;;;;18.70;16.40;;;25.70;99.90;;;;;;5051769;28;20179;-77
2023/05/22 11:57:21;;;;;;;21.42;17.17;;;25.60;99.90;;;;;;5051757;28;20116;-77
2023/05/22 11:59:48;;;;;;;18.98;15.70;;;25.70;99.90;;;;;;5051532;28;20127;-76
2023/05/22 12:02:15;;;;;;;21.90;18.52;;;25.90;99.90;;;;;;5035168;28;20045;-76
2023/05/22 12:04:41;;;;;;;21.55;17.95;;;25.90;99.90;;;;;;5052732;28;20120;-76
2023/05/22 12:07:07;;;;;;;18.65;16.63;;;25.70;99.90;;;;;;5052477;28;20076;-76
2023/05/22 12:09:33;;;;;;;24.67;17.35;;;25.50;99.90;;;;;;5051440;28;20047;-76
2023/05/22 12:11:59;;;;;;;18.77;16.35;;;25.20;99.90;;;;;;5051674;28;20459;-76
2023/05/22 12:14:27;;;;;;;20.20;17.40;;;25.30;99.90;;;;;;5051412;28;20123;-76
2023/05/22 12:16:53;;;;;;;19.30;16.25;;;25.50;99.90;;;;;;5051241;28;20041;-76
2023/05/22 12:19:20;;;;;;;21.42;17.42;;;25.50;99.90;;;;;;5055097;28;20033;-76
2023/05/22 12:21:48;;;;;;;19.65;17.55;;;25.70;99.90;;;;;;5056433;28;20078;-76
2023/05/22 12:24:14;;;;;;;20.05;17.63;;;25.60;99.90;;;;;;5055142;28;20045;-76
2023/05/22 12:26:40;;;;;;;19.70;17.20;;;25.60;99.90;;;;;;5055095;28;20040;-76
2023/05/22 12:29:05;;;;;;;18.20;16.27;;;25.60;99.90;;;;;;5055086;28;20091;-77
2023/05/22 12:31:38;;;;;;;19.23;17.30;;;25.60;99.90;;;;;;5021957;28;20045;-76
2023/05/22 12:34:06;;;;;;;19.45;17.35;;;25.40;99.90;;;;;;5055022;28;20080;-76